Time;durP1;ratioP1;P1;durP2;ratioP2;P2;SDS_P1;SDS_P2;PMS_P1;PMS_P2;Temp;Humidity;BMP_temperature;BMP_pressure;BME280_temperature;BME280_humidity;BME280_pressure;Samples;Min_cycle;Max_cycle;Signal;HPM_P1;HPM_P2
2023/09/20 00:01:41;;;;;;;12.48;8.32;;;;;;;;;;5033586;28;20045;-67
2023/09/20 00:04:09;;;;;;;14.50;8.00;;;;;;;;;;5033535;28;20041;-67
2023/09/20 00:06:37;;;;;;;10.07;7.95;;;;;;;;;;5033411;28;20053;-67
2023/09/20 00:09:05;;;;;;;17.23;8.73;;;;;;;;;;5033406;28;20038;-67
2023/09/20 00:11:32;;;;;;;12.00;8.57;;;;;;;;;;5033397;28;20419;-67
2023/09/20 00:14:00;;;;;;;11.43;8.25;;;;;;;;;;5033126;28;20050;-67
2023/09/20 00:16:29;;;;;;;11.55;7.97;;;;;;;;;;5033293;28;20541;-67
2023/09/20 00:18:56;;;;;;;9.95;7.82;;;;;;;;;;5033340;28;20401;-67
2023/09/20 00:21:24;;;;;;;9.63;7.97;;;;;;;;;;5033227;28;20065;-67
2023/09/20 00:23:51;;;;;;;11.35;8.65;;;;;;;;;;5033063;28;20045;-67
2023/09/20 00:26:19;;;;;;;12.10;8.48;;;;;;;;;;5033118;28;20124;-67
2023/09/20 00:28:49;;;;;;;12.73;8.60;;;;;;;;;;5032962;28;20030;-67
2023/09/20 00:31:16;;;;;;;14.25;8.60;;;;;;;;;;5033075;28;20045;-67
2023/09/20 00:33:45;;;;;;;12.27;8.90;;;;;;;;;;5031699;28;20095;-67
2023/09/20 00:36:21;;;;;;;12.30;8.60;;;;;;;;;;5033242;28;20045;-67
2023/09/20 00:38:49;;;;;;;12.07;8.75;;;;;;;;;;5031484;28;20131;-67
2023/09/20 00:41:16;;;;;;;12.02;8.40;;;;;;;;;;5031626;28;20495;-67
2023/09/20 00:43:44;;;;;;;11.20;8.27;;;;;;;;;;5031535;28;20042;-67
2023/09/20 00:46:12;;;;;;;13.35;8.77;;;;;;;;;;5031507;28;20045;-67
2023/09/20 00:48:41;;;;;;;11.30;9.07;;;;;;;;;;5031481;28;20050;-67
2023/09/20 00:51:09;;;;;;;13.65;9.55;;;;;;;;;;5032688;28;20120;-66
2023/09/20 00:53:37;;;;;;;10.77;9.07;;;;;;;;;;5030661;28;20077;-67
2023/09/20 00:56:06;;;;;;;13.00;9.43;;;;;;;;;;5032657;28;20405;-67
2023/09/20 00:58:34;;;;;;;12.95;9.75;;;;;;;;;;5032696;28;20099;-67
2023/09/20 01:01:04;;;;;;;12.50;9.70;;;;;;;;;;5032470;28;20033;-67
2023/09/20 01:03:34;;;;;;;15.50;10.23;;;;;;;;;;5032615;28;20048;-66
2023/09/20 01:06:08;;;;;;;15.27;10.55;;;;;;;;;;5032547;28;20049;-67
2023/09/20 01:08:36;;;;;;;15.35;11.18;;;;;;;;;;5031218;28;20054;-67
2023/09/20 01:11:04;;;;;;;12.60;10.23;;;;;;;;;;5031296;28;20395;-67
2023/09/20 01:13:32;;;;;;;14.40;9.80;;;;;;;;;;5047819;28;20384;-66
2023/09/20 01:16:01;;;;;;;12.38;10.10;;;;;;;;;;5032482;28;20142;-68
2023/09/20 01:18:29;;;;;;;12.23;10.50;;;;;;;;;;5030991;28;20430;-67
2023/09/20 01:20:56;;;;;;;13.77;10.63;;;;;;;;;;5031008;28;20053;-67
2023/09/20 01:23:24;;;;;;;13.60;10.00;;;;;;;;;;5032330;28;20120;-67
2023/09/20 01:25:52;;;;;;;12.60;10.40;;;;;;;;;;5031058;28;20112;-67
2023/09/20 01:28:19;;;;;;;12.27;10.05;;;;;;;;;;5032515;28;20399;-67
2023/09/20 01:30:50;;;;;;;15.07;10.63;;;;;;;;;;5030998;28;20388;-67
2023/09/20 01:33:18;;;;;;;12.20;9.77;;;;;;;;;;5031474;28;20045;-67
2023/09/20 01:35:47;;;;;;;14.73;10.02;;;;;;;;;;5030894;28;20041;-67
2023/09/20 01:38:14;;;;;;;15.05;10.40;;;;;;;;;;5030841;28;20045;-67
2023/09/20 01:40:42;;;;;;;16.90;10.75;;;;;;;;;;5030915;28;20108;-66
2023/09/20 01:43:11;;;;;;;13.73;10.57;;;;;;;;;;5030883;28;20048;-66
2023/09/20 01:45:43;;;;;;;13.50;10.07;;;;;;;;;;5030873;28;20069;-66
2023/09/20 01:48:11;;;;;;;16.00;10.95;;;;;;;;;;5030937;28;20119;-66
2023/09/20 01:50:41;;;;;;;14.15;11.48;;;;;;;;;;5030805;28;20045;-67
2023/09/20 01:53:10;;;;;;;16.40;11.45;;;;;;;;;;5032151;28;20034;-67
2023/09/20 01:55:42;;;;;;;14.27;11.45;;;;;;;;;;5031808;28;20438;-67
2023/09/20 01:58:12;;;;;;;17.42;11.75;;;;;;;;;;5030766;28;20045;-67
2023/09/20 02:00:42;;;;;;;16.85;12.20;;;;;;;;;;5030646;28;20490;-67
2023/09/20 02:03:14;;;;;;;14.73;11.45;;;;;;;;;;5030802;28;20057;-67
2023/09/20 02:05:44;;;;;;;17.00;12.20;;;;;;;;;;5034630;28;20064;-67
2023/09/20 02:08:11;;;;;;;18.33;12.55;;;;;;;;;;5034548;28;20552;-67
2023/09/20 02:10:39;;;;;;;16.73;11.93;;;;;;;;;;5034410;28;20049;-67
2023/09/20 02:13:07;;;;;;;16.00;12.25;;;;;;;;;;5034465;28;20044;-67
2023/09/20 02:15:36;;;;;;;16.77;13.18;;;;;;;;;;5034247;28;20042;-67
2023/09/20 02:18:09;;;;;;;20.13;12.63;;;;;;;;;;5034208;28;20403;-66
2023/09/20 02:20:37;;;;;;;13.73;12.18;;;;;;;;;;5035413;28;20042;-67
2023/09/20 02:23:07;;;;;;;15.80;12.95;;;;;;;;;;5035749;28;20091;-67
2023/09/20 02:25:35;;;;;;;16.27;12.30;;;;;;;;;;5034147;28;20080;-66
2023/09/20 02:28:03;;;;;;;15.27;12.27;;;;;;;;;;5035296;28;20120;-67
2023/09/20 02:30:37;;;;;;;17.25;12.55;;;;;;;;;;5035265;28;20122;-66
2023/09/20 02:33:06;;;;;;;18.15;13.25;;;;;;;;;;5034196;28;20112;-67
2023/09/20 02:35:36;;;;;;;17.92;12.95;;;;;;;;;;5035078;28;20053;-66
2023/09/20 02:38:05;;;;;;;16.15;13.05;;;;;;;;;;5033784;28;20410;-66
2023/09/20 02:40:35;;;;;;;19.50;13.45;;;;;;;;;;5035031;28;20091;-67
2023/09/20 02:43:08;;;;;;;19.30;13.40;;;;;;;;;;5035103;28;20677;-67
2023/09/20 02:45:39;;;;;;;18.88;13.98;;;;;;;;;;5050324;28;20107;-66
2023/09/20 02:48:07;;;;;;;17.30;13.70;;;;;;;;;;5033786;28;20427;-67
2023/09/20 02:50:35;;;;;;;19.15;12.65;;;;;;;;;;5035191;28;20061;-66
2023/09/20 02:53:05;;;;;;;20.27;13.77;;;;;;;;;;5033630;28;20042;-66
2023/09/20 02:55:34;;;;;;;18.30;13.63;;;;;;;;;;5033496;28;20049;-67
2023/09/20 02:58:02;;;;;;;22.13;13.90;;;;;;;;;;5033540;28;20038;-67
2023/09/20 03:00:31;;;;;;;17.77;13.73;;;;;;;;;;5033262;28;20290;-67
2023/09/20 03:03:01;;;;;;;16.65;13.35;;;;;;;;;;5033433;28;20148;-67
2023/09/20 03:05:33;;;;;;;20.35;13.27;;;;;;;;;;5033365;28;20132;-66
2023/09/20 03:08:13;;;;;;;17.33;13.00;;;;;;;;;;5033296;28;20049;-67
2023/09/20 03:10:42;;;;;;;16.48;13.57;;;;;;;;;;5033223;28;20550;-67
2023/09/20 03:13:11;;;;;;;16.13;12.85;;;;;;;;;;5033230;28;20045;-67
2023/09/20 03:15:43;;;;;;;16.98;12.98;;;;;;;;;;5032738;28;20402;-67
2023/09/20 03:18:14;;;;;;;21.60;13.70;;;;;;;;;;5032734;28;20065;-67
2023/09/20 03:20:48;;;;;;;18.63;13.57;;;;;;;;;;5033007;28;20081;-66
2023/09/20 03:23:17;;;;;;;20.38;13.70;;;;;;;;;;5033029;28;20404;-66
2023/09/20 03:25:45;;;;;;;17.33;13.48;;;;;;;;;;5032978;28;20059;-66
2023/09/20 03:28:25;;;;;;;17.95;13.77;;;;;;;;;;5032898;28;20041;-66
2023/09/20 03:30:56;;;;;;;15.98;13.50;;;;;;;;;;5032764;28;20120;-66
2023/09/20 03:33:27;;;;;;;16.85;13.68;;;;;;;;;;5028898;28;20041;-66
2023/09/20 03:35:55;;;;;;;20.00;13.75;;;;;;;;;;5032036;28;20053;-66
2023/09/20 03:38:22;;;;;;;20.27;13.55;;;;;;;;;;5031915;28;20376;-65
2023/09/20 03:40:52;;;;;;;17.80;13.23;;;;;;;;;;5032173;28;20045;-66
2023/09/20 03:43:19;;;;;;;19.70;13.95;;;;;;;;;;5032534;28;20052;-66
2023/09/20 03:45:51;;;;;;;17.73;12.80;;;;;;;;;;5032491;28;20048;-66
2023/09/20 03:48:21;;;;;;;15.57;12.05;;;;;;;;;;5032410;28;20048;-66
2023/09/20 03:50:49;;;;;;;13.57;12.15;;;;;;;;;;5032372;28;20454;-66
2023/09/20 03:53:16;;;;;;;19.33;13.25;;;;;;;;;;5016131;28;20038;-66
2023/09/20 03:55:48;;;;;;;18.08;12.80;;;;;;;;;;5032226;28;20045;-66
2023/09/20 03:58:20;;;;;;;14.98;12.55;;;;;;;;;;5032388;28;20049;-67
2023/09/20 04:00:48;;;;;;;16.50;12.00;;;;;;;;;;5031794;28;20136;-67
2023/09/20 04:03:17;;;;;;;15.25;12.80;;;;;;;;;;5031816;28;20037;-67
2023/09/20 04:05:46;;;;;;;16.98;13.32;;;;;;;;;;5032009;28;20076;-66
2023/09/20 04:08:18;;;;;;;16.55;12.23;;;;;;;;;;5031656;28;20399;-67
2023/09/20 04:10:46;;;;;;;16.83;12.27;;;;;;;;;;5032306;28;20185;-68
2023/09/20 04:13:17;;;;;;;17.90;12.90;;;;;;;;;;5032040;28;20084;-68
2023/09/20 04:15:45;;;;;;;16.92;12.38;;;;;;;;;;5031799;28;20045;-67
2023/09/20 04:18:13;;;;;;;15.35;12.07;;;;;;;;;;5031878;28;20041;-67
2023/09/20 04:20:42;;;;;;;23.52;12.30;;;;;;;;;;5031860;28;20081;-67
2023/09/20 04:23:10;;;;;;;14.98;11.70;;;;;;;;;;5031892;28;20038;-67
2023/09/20 04:25:39;;;;;;;15.77;11.43;;;;;;;;;;5031942;28;20045;-67
2023/09/20 04:28:09;;;;;;;16.10;11.07;;;;;;;;;;5031600;28;20044;-67
2023/09/20 04:30:38;;;;;;;13.98;11.20;;;;;;;;;;5031654;28;20138;-67
2023/09/20 04:33:10;;;;;;;17.67;12.07;;;;;;;;;;5031739;28;20037;-67
2023/09/20 04:35:40;;;;;;;16.92;11.27;;;;;;;;;;5031642;28;20141;-67
2023/09/20 04:38:14;;;;;;;16.45;11.55;;;;;;;;;;5031404;28;20080;-67
2023/09/20 04:40:42;;;;;;;16.63;12.35;;;;;;;;;;5031457;28;20050;-67
2023/09/20 04:43:10;;;;;;;16.90;12.25;;;;;;;;;;5031468;28;20041;-67
2023/09/20 04:45:38;;;;;;;18.80;12.05;;;;;;;;;;5031510;28;20077;-67
2023/09/20 04:48:06;;;;;;;18.52;12.30;;;;;;;;;;5015042;28;20049;-66
2023/09/20 04:50:35;;;;;;;17.05;12.20;;;;;;;;;;5029845;28;20694;-67
2023/09/20 04:53:04;;;;;;;22.58;12.48;;;;;;;;;;5031110;28;20041;-67
2023/09/20 04:55:34;;;;;;;23.17;11.80;;;;;;;;;;5031397;28;20049;-67
2023/09/20 04:58:02;;;;;;;17.27;12.23;;;;;;;;;;5031304;28;20045;-67
2023/09/20 05:00:37;;;;;;;20.50;11.45;;;;;;;;;;5031259;28;20052;-67
2023/09/20 05:03:11;;;;;;;16.13;11.15;;;;;;;;;;5031600;28;20048;-67
2023/09/20 05:05:39;;;;;;;15.60;11.82;;;;;;;;;;5031254;28;20072;-67
2023/09/20 05:08:08;;;;;;;16.15;12.20;;;;;;;;;;5031353;28;20041;-67
2023/09/20 05:10:37;;;;;;;13.65;11.68;;;;;;;;;;5031191;28;20049;-67
2023/09/20 05:13:09;;;;;;;18.77;12.02;;;;;;;;;;5031139;28;20041;-67
2023/09/20 05:15:37;;;;;;;18.83;12.98;;;;;;;;;;5015236;28;20128;-66
2023/09/20 05:18:07;;;;;;;15.52;11.73;;;;;;;;;;5031042;28;20037;-66
2023/09/20 05:20:36;;;;;;;18.05;12.10;;;;;;;;;;5031061;28;20050;-67
2023/09/20 05:23:04;;;;;;;14.93;11.98;;;;;;;;;;5031158;28;20056;-67
2023/09/20 05:25:33;;;;;;;19.25;11.75;;;;;;;;;;5030966;28;20056;-67
2023/09/20 05:28:01;;;;;;;21.13;11.73;;;;;;;;;;5031047;28;20045;-67
2023/09/20 05:30:29;;;;;;;18.15;11.68;;;;;;;;;;5014852;28;20459;-66
2023/09/20 05:32:58;;;;;;;18.80;12.90;;;;;;;;;;5030929;28;20503;-67
2023/09/20 05:35:26;;;;;;;15.43;11.43;;;;;;;;;;5031049;28;20057;-67
2023/09/20 05:37:54;;;;;;;16.42;11.98;;;;;;;;;;5032009;28;20049;-67
2023/09/20 05:40:22;;;;;;;16.38;11.55;;;;;;;;;;5034469;28;20049;-67
2023/09/20 05:42:52;;;;;;;18.77;12.05;;;;;;;;;;5036221;28;20037;-66
2023/09/20 05:45:20;;;;;;;17.33;11.88;;;;;;;;;;5036090;28;20045;-67
2023/09/20 05:47:49;;;;;;;19.00;12.05;;;;;;;;;;5036205;28;20454;-67
2023/09/20 05:50:17;;;;;;;18.13;12.05;;;;;;;;;;5035994;28;20128;-66
2023/09/20 05:52:45;;;;;;;18.58;12.60;;;;;;;;;;5036387;28;20041;-67
2023/09/20 05:55:15;;;;;;;19.45;11.65;;;;;;;;;;5035969;28;20046;-66
2023/09/20 05:57:43;;;;;;;17.35;11.77;;;;;;;;;;5036077;28;20117;-66
2023/09/20 06:00:21;;;;;;;15.55;11.05;;;;;;;;;;5035915;28;20029;-66
2023/09/20 06:02:49;;;;;;;16.63;11.60;;;;;;;;;;5035818;28;20088;-66
2023/09/20 06:05:18;;;;;;;15.55;11.18;;;;;;;;;;5035642;28;20049;-67
2023/09/20 06:07:46;;;;;;;19.13;11.27;;;;;;;;;;5034744;28;20124;-67
2023/09/20 06:10:18;;;;;;;16.40;11.52;;;;;;;;;;5035776;28;20072;-67
2023/09/20 06:12:46;;;;;;;19.63;11.50;;;;;;;;;;5035594;28;20037;-67
2023/09/20 06:15:14;;;;;;;20.08;11.85;;;;;;;;;;5035675;28;20092;-66
2023/09/20 06:17:44;;;;;;;22.13;12.10;;;;;;;;;;5035586;28;20201;-66
2023/09/20 06:20:12;;;;;;;16.83;11.52;;;;;;;;;;5035538;28;20049;-66
2023/09/20 06:22:40;;;;;;;18.17;11.85;;;;;;;;;;5035436;28;20117;-66
2023/09/20 06:25:08;;;;;;;19.60;11.90;;;;;;;;;;5035443;28;20045;-66
2023/09/20 06:27:35;;;;;;;18.20;11.98;;;;;;;;;;5035455;28;20373;-66
2023/09/20 06:30:06;;;;;;;20.83;12.48;;;;;;;;;;5035271;28;20403;-67
2023/09/20 06:32:37;;;;;;;20.27;12.57;;;;;;;;;;5035433;28;20048;-66
2023/09/20 06:35:07;;;;;;;18.63;12.98;;;;;;;;;;5035218;28;20046;-67
2023/09/20 06:37:35;;;;;;;18.17;11.93;;;;;;;;;;5035024;28;20392;-66
2023/09/20 06:40:03;;;;;;;17.45;11.88;;;;;;;;;;5035125;28;20060;-66
2023/09/20 06:42:31;;;;;;;16.75;11.82;;;;;;;;;;5033827;28;20402;-66
2023/09/20 06:44:59;;;;;;;17.52;12.20;;;;;;;;;;5035089;28;20038;-66
2023/09/20 06:47:26;;;;;;;20.25;13.70;;;;;;;;;;5033861;28;20041;-66
2023/09/20 06:49:54;;;;;;;15.52;11.40;;;;;;;;;;5034792;28;20051;-66
2023/09/20 06:52:22;;;;;;;19.77;12.68;;;;;;;;;;5033650;28;20111;-67
2023/09/20 06:54:50;;;;;;;16.48;12.15;;;;;;;;;;5034909;28;20049;-66
2023/09/20 06:57:18;;;;;;;18.05;11.43;;;;;;;;;;5034852;28;20038;-66
2023/09/20 06:59:46;;;;;;;19.13;11.10;;;;;;;;;;5034815;28;20037;-66
2023/09/20 07:02:16;;;;;;;14.02;10.25;;;;;;;;;;5034540;28;20064;-66
2023/09/20 07:04:44;;;;;;;14.07;9.30;;;;;;;;;;5033364;28;20037;-66
2023/09/20 07:07:12;;;;;;;13.40;9.13;;;;;;;;;;5034644;28;20538;-66
2023/09/20 07:09:40;;;;;;;11.27;8.88;;;;;;;;;;5034676;28;20041;-67
2023/09/20 07:12:09;;;;;;;11.05;8.52;;;;;;;;;;5034622;28;20045;-66
2023/09/20 07:14:37;;;;;;;10.15;7.65;;;;;;;;;;5034455;28;20065;-66
2023/09/20 07:17:07;;;;;;;13.55;7.63;;;;;;;;;;5034419;28;20558;-66
2023/09/20 07:19:36;;;;;;;9.55;7.43;;;;;;;;;;5033272;28;20034;-66
2023/09/20 07:22:05;;;;;;;9.40;7.65;;;;;;;;;;5034536;28;20037;-66
2023/09/20 07:24:35;;;;;;;9.18;7.35;;;;;;;;;;5034349;28;20052;-66
2023/09/20 07:27:03;;;;;;;7.65;6.55;;;;;;;;;;5034383;28;20056;-66
2023/09/20 07:29:39;;;;;;;9.25;6.70;;;;;;;;;;5034313;28;20033;-66
2023/09/20 07:32:08;;;;;;;10.27;6.45;;;;;;;;;;5034055;28;20395;-68
2023/09/20 07:34:35;;;;;;;9.70;7.15;;;;;;;;;;5034102;28;20044;-68
2023/09/20 07:37:07;;;;;;;17.38;7.50;;;;;;;;;;5034128;28;20057;-67
2023/09/20 07:39:35;;;;;;;10.70;6.57;;;;;;;;;;5034185;28;20077;-68
2023/09/20 07:42:02;;;;;;;12.73;6.72;;;;;;;;;;5033994;28;20038;-68
2023/09/20 07:44:31;;;;;;;8.20;6.10;;;;;;;;;;5034074;28;20466;-68
2023/09/20 07:46:59;;;;;;;7.03;5.70;;;;;;;;;;5033969;28;20052;-68
2023/09/20 07:49:27;;;;;;;7.93;5.57;;;;;;;;;;5033932;28;20542;-67
2023/09/20 07:51:54;;;;;;;8.48;5.47;;;;;;;;;;5033814;28;20041;-67
2023/09/20 07:54:22;;;;;;;10.25;5.90;;;;;;;;;;5033740;28;20491;-67
2023/09/20 07:56:52;;;;;;;7.20;5.00;;;;;;;;;;5033789;28;20045;-67
2023/09/20 07:59:25;;;;;;;10.32;4.75;;;;;;;;;;5033757;28;20038;-67
2023/09/20 08:01:53;;;;;;;7.72;4.40;;;;;;;;;;5033230;28;20057;-67
2023/09/20 08:04:23;;;;;;;6.22;3.80;;;;;;;;;;5033534;28;20053;-67
2023/09/20 08:06:50;;;;;;;6.07;4.32;;;;;;;;;;5033623;28;20121;-67
2023/09/20 08:09:18;;;;;;;8.07;4.32;;;;;;;;;;5033442;28;20037;-67
2023/09/20 08:11:46;;;;;;;10.70;4.20;;;;;;;;;;5033757;28;20092;-67
2023/09/20 08:14:14;;;;;;;7.78;4.28;;;;;;;;;;5033321;28;20121;-67
2023/09/20 08:16:42;;;;;;;8.98;4.60;;;;;;;;;;5033342;28;20499;-68
2023/09/20 08:19:31;;;;;;;6.45;4.38;;;;;;;;;;5033300;28;20041;-67
2023/09/20 08:21:58;;;;;;;11.02;5.80;;;;;;;;;;5033162;28;20506;-67
2023/09/20 09:00:46;;;;;;;7.45;5.05;;;;;;;;;;5032629;28;20471;-67
2023/09/20 09:03:15;;;;;;;8.43;5.50;;;;;;;;;;5032532;28;20061;-68
2023/09/20 09:05:43;;;;;;;8.65;5.38;;;;;;;;;;5032741;28;20041;-68
2023/09/20 09:08:13;;;;;;;9.15;5.47;;;;;;;;;;5032554;28;20041;-67
2023/09/20 09:10:41;;;;;;;7.00;5.28;;;;;;;;;;5032434;28;20112;-67
2023/09/20 09:13:08;;;;;;;8.27;5.53;;;;;;;;;;5032586;28;20675;-67
2023/09/20 09:15:36;;;;;;;8.25;5.70;;;;;;;;;;5031707;28;20038;-66
2023/09/20 09:18:03;;;;;;;14.50;5.80;;;;;;;;;;5032445;28;20403;-67
2023/09/20 09:20:33;;;;;;;7.70;5.13;;;;;;;;;;5032551;28;20041;-68
2023/09/20 09:23:02;;;;;;;6.10;5.28;;;;;;;;;;5032544;28;20045;-67
2023/09/20 09:25:30;;;;;;;7.57;5.57;;;;;;;;;;5032439;28;20037;-68
2023/09/20 09:28:00;;;;;;;8.82;5.50;;;;;;;;;;5032538;28;20038;-68
2023/09/20 09:30:28;;;;;;;8.35;5.18;;;;;;;;;;5032347;28;20048;-67
2023/09/20 09:32:55;;;;;;;7.68;5.50;;;;;;;;;;5032325;28;20048;-67
2023/09/20 09:35:23;;;;;;;10.30;5.70;;;;;;;;;;5032929;28;20356;-67
2023/09/20 09:38:12;;;;;;;8.45;5.10;;;;;;;;;;5032231;28;20042;-67
2023/09/20 09:40:56;;;;;;;11.13;5.70;;;;;;;;;;5032252;28;20522;-67
2023/09/20 09:43:29;;;;;;;6.90;4.97;;;;;;;;;;5032294;28;20042;-66
2023/09/20 09:46:17;;;;;;;8.80;5.38;;;;;;;;;;5031357;28;20045;-68
2023/09/20 09:48:46;;;;;;;7.90;5.20;;;;;;;;;;5014658;28;20064;-67
2023/09/20 09:51:16;;;;;;;8.30;5.10;;;;;;;;;;5032342;28;20046;-67
2023/09/20 09:53:45;;;;;;;9.00;4.82;;;;;;;;;;5032184;28;20495;-68
2023/09/20 09:56:13;;;;;;;7.78;4.90;;;;;;;;;;5032086;28;20457;-66
2023/09/20 09:58:41;;;;;;;9.48;5.60;;;;;;;;;;5031009;28;20042;-66
2023/09/20 10:01:10;;;;;;;8.50;4.68;;;;;;;;;;5032055;28;20041;-67
2023/09/20 10:03:40;;;;;;;9.95;5.15;;;;;;;;;;5031859;28;20140;-68
2023/09/20 10:06:12;;;;;;;15.23;7.90;;;;;;;;;;5032124;28;20096;-66
2023/09/20 10:08:41;;;;;;;10.70;5.82;;;;;;;;;;5031962;28;20447;-66
2023/09/20 10:11:10;;;;;;;7.15;4.70;;;;;;;;;;5032049;28;20491;-66
2023/09/20 10:13:39;;;;;;;9.40;5.15;;;;;;;;;;5032246;28;20497;-67
2023/09/20 10:16:10;;;;;;;7.68;5.00;;;;;;;;;;5030755;28;20507;-66
2023/09/20 10:18:51;;;;;;;8.80;5.82;;;;;;;;;;5030742;28;20047;-67
2023/09/20 10:21:27;;;;;;;12.70;5.72;;;;;;;;;;5031877;28;20112;-67
2023/09/20 10:23:58;;;;;;;10.65;5.32;;;;;;;;;;5031962;28;20045;-67
2023/09/20 10:26:29;;;;;;;12.05;5.15;;;;;;;;;;5033809;28;20046;-67
2023/09/20 10:28:58;;;;;;;8.15;4.50;;;;;;;;;;5035189;28;20052;-67
2023/09/20 10:31:29;;;;;;;10.77;5.13;;;;;;;;;;5035373;28;20430;-66
2023/09/20 10:33:57;;;;;;;8.60;4.57;;;;;;;;;;5034093;28;20042;-69
2023/09/20 10:36:25;;;;;;;6.15;4.72;;;;;;;;;;5035225;28;20045;-67
2023/09/20 10:39:13;;;;;;;8.70;5.10;;;;;;;;;;5035154;28;20057;-67
2023/09/20 10:41:41;;;;;;;9.55;4.93;;;;;;;;;;5034993;28;20356;-66
2023/09/20 10:44:09;;;;;;;7.28;4.78;;;;;;;;;;5035284;28;20046;-66
2023/09/20 10:46:37;;;;;;;12.57;4.68;;;;;;;;;;5035364;28;20148;-66
2023/09/20 10:49:06;;;;;;;8.85;4.55;;;;;;;;;;5035037;28;20391;-68
2023/09/20 10:51:44;;;;;;;7.55;4.90;;;;;;;;;;5033707;28;20140;-67
2023/09/20 10:54:25;;;;;;;8.75;4.85;;;;;;;;;;5034908;28;20053;-67
2023/09/20 10:56:53;;;;;;;7.07;4.82;;;;;;;;;;5035219;28;20045;-69
2023/09/20 10:59:21;;;;;;;12.80;6.30;;;;;;;;;;5034793;28;20072;-67
2023/09/20 11:01:58;;;;;;;13.20;6.28;;;;;;;;;;5034793;28;20033;-67
2023/09/20 11:04:26;;;;;;;8.02;4.65;;;;;;;;;;5034810;28;20117;-66
2023/09/20 11:06:55;;;;;;;10.43;5.60;;;;;;;;;;5034666;28;20045;-66
2023/09/20 11:09:23;;;;;;;9.55;5.38;;;;;;;;;;5034658;28;20041;-67
2023/09/20 11:11:51;;;;;;;9.90;5.75;;;;;;;;;;5034697;28;20041;-66
2023/09/20 11:14:19;;;;;;;20.27;13.98;;;;;;;;;;5034642;28;20077;-67
2023/09/20 11:16:47;;;;;;;20.00;6.40;;;;;;;;;;5033338;28;20077;-66
2023/09/20 11:19:15;;;;;;;15.30;8.45;;;;;;;;;;5034145;28;20513;-66
2023/09/20 11:21:42;;;;;;;7.57;5.22;;;;;;;;;;5034174;28;20506;-66
2023/09/20 11:24:14;;;;;;;9.40;5.32;;;;;;;;;;5034374;28;20068;-66
2023/09/20 11:26:47;;;;;;;12.65;5.90;;;;;;;;;;5034606;28;20125;-66
2023/09/20 11:29:18;;;;;;;12.48;5.15;;;;;;;;;;5034297;28;20116;-67
2023/09/20 11:31:46;;;;;;;8.40;4.95;;;;;;;;;;5034540;28;20045;-66
2023/09/20 11:34:13;;;;;;;8.15;4.50;;;;;;;;;;5034186;28;20040;-67
2023/09/20 11:36:45;;;;;;;9.70;5.10;;;;;;;;;;5032281;28;20091;-66
2023/09/20 11:39:17;;;;;;;8.18;5.00;;;;;;;;;;5033818;28;20125;-66
2023/09/20 11:41:45;;;;;;;9.43;5.00;;;;;;;;;;5034015;28;20045;-66
2023/09/20 11:44:13;;;;;;;11.73;4.70;;;;;;;;;;5033773;28;20049;-66
2023/09/20 11:46:41;;;;;;;6.70;4.75;;;;;;;;;;5033952;28;20395;-66
2023/09/20 11:49:11;;;;;;;11.25;4.55;;;;;;;;;;5033822;28;20037;-66
2023/09/20 11:51:40;;;;;;;9.40;4.38;;;;;;;;;;5033710;28;20116;-66
2023/09/20 11:54:10;;;;;;;9.32;4.40;;;;;;;;;;5032468;28;20037;-67
2023/09/20 11:56:38;;;;;;;7.90;4.43;;;;;;;;;;5033482;28;20100;-67
2023/09/20 11:59:06;;;;;;;10.68;4.85;;;;;;;;;;5033855;28;20049;-67
2023/09/20 12:01:40;;;;;;;7.72;4.70;;;;;;;;;;5033652;28;20455;-66
2023/09/20 12:04:10;;;;;;;10.32;4.70;;;;;;;;;;5033574;28;20057;-67
2023/09/20 12:06:38;;;;;;;8.88;4.20;;;;;;;;;;5033563;28;20045;-67
2023/09/20 12:09:06;;;;;;;6.93;4.65;;;;;;;;;;5033428;28;20103;-66
2023/09/20 12:11:35;;;;;;;6.78;4.43;;;;;;;;;;5033554;28;20107;-66
2023/09/20 12:14:03;;;;;;;8.75;4.63;;;;;;;;;;5032027;28;20403;-67
2023/09/20 12:16:31;;;;;;;9.18;4.88;;;;;;;;;;5032136;28;20495;-66
2023/09/20 12:18:58;;;;;;;7.90;4.30;;;;;;;;;;5033055;28;20052;-66
2023/09/20 12:21:26;;;;;;;9.45;4.50;;;;;;;;;;5033181;28;20111;-68
2023/09/20 12:23:54;;;;;;;8.45;4.15;;;;;;;;;;5033054;28;20041;-67
2023/09/20 12:26:24;;;;;;;9.02;3.90;;;;;;;;;;5033092;28;20048;-67
2023/09/20 12:28:52;;;;;;;10.98;4.60;;;;;;;;;;5033116;28;20041;-67
2023/09/20 12:31:23;;;;;;;10.98;4.30;;;;;;;;;;5032837;28;20045;-65
2023/09/20 12:33:52;;;;;;;8.25;3.80;;;;;;;;;;5033008;28;20042;-66
2023/09/20 12:36:21;;;;;;;7.38;3.97;;;;;;;;;;5032875;28;20037;-66
2023/09/20 12:38:49;;;;;;;5.90;4.13;;;;;;;;;;5032572;28;20079;-66
2023/09/20 12:41:18;;;;;;;8.50;4.10;;;;;;;;;;5033183;28;20045;-65
2023/09/20 12:43:45;;;;;;;9.13;3.95;;;;;;;;;;5032699;28;20042;-65
2023/09/20 12:46:13;;;;;;;7.88;3.90;;;;;;;;;;5032885;28;20033;-65
2023/09/20 12:48:44;;;;;;;7.38;3.83;;;;;;;;;;5032765;28;20095;-65
2023/09/20 12:51:12;;;;;;;5.20;3.25;;;;;;;;;;5032798;28;20042;-67
2023/09/20 12:53:42;;;;;;;7.35;3.40;;;;;;;;;;5032826;28;20129;-66
2023/09/20 12:56:11;;;;;;;6.53;3.70;;;;;;;;;;5032743;28;20046;-67
2023/09/20 12:58:42;;;;;;;10.27;4.40;;;;;;;;;;5032592;28;20049;-66
2023/09/20 13:01:10;;;;;;;11.68;3.80;;;;;;;;;;5032204;28;20045;-68
2023/09/20 13:03:40;;;;;;;7.68;3.75;;;;;;;;;;5031728;28;20038;-68
2023/09/20 13:06:13;;;;;;;7.47;4.15;;;;;;;;;;5032467;28;20506;-67
2023/09/20 13:08:41;;;;;;;13.52;4.70;;;;;;;;;;5032442;28;20041;-65
2023/09/20 13:11:10;;;;;;;9.45;4.60;;;;;;;;;;5031269;28;20688;-66
2023/09/20 13:13:40;;;;;;;8.45;4.10;;;;;;;;;;5032686;28;20080;-65
2023/09/20 13:16:09;;;;;;;12.07;4.47;;;;;;;;;;5032397;28;20037;-65
2023/09/20 13:18:38;;;;;;;9.73;5.47;;;;;;;;;;5032375;28;20045;-66
2023/09/20 13:21:06;;;;;;;8.93;4.97;;;;;;;;;;5032113;28;20103;-67
2023/09/20 13:23:34;;;;;;;10.52;4.88;;;;;;;;;;5031595;28;20049;-67
2023/09/20 13:26:05;;;;;;;8.63;4.32;;;;;;;;;;5032194;28;20041;-66
2023/09/20 13:28:33;;;;;;;8.48;4.65;;;;;;;;;;5031326;28;20037;-65
2023/09/20 13:31:02;;;;;;;13.23;5.40;;;;;;;;;;5032151;28;20091;-67
2023/09/20 13:33:30;;;;;;;11.30;4.78;;;;;;;;;;5030481;28;20034;-65
2023/09/20 13:35:58;;;;;;;8.95;5.20;;;;;;;;;;5030741;28;20096;-67
2023/09/20 13:38:25;;;;;;;9.23;4.65;;;;;;;;;;5028831;28;20119;-67
2023/09/20 13:40:53;;;;;;;14.85;5.53;;;;;;;;;;5032029;28;20113;-68
2023/09/20 13:43:21;;;;;;;8.50;5.28;;;;;;;;;;5032015;28;20080;-68
2023/09/20 13:45:48;;;;;;;8.50;5.30;;;;;;;;;;5031395;28;20456;-68
2023/09/20 13:48:16;;;;;;;9.65;5.18;;;;;;;;;;5032052;28;20475;-64
2023/09/20 13:50:44;;;;;;;8.18;6.03;;;;;;;;;;5031948;28;20046;-63
2023/09/20 13:53:12;;;;;;;10.10;5.28;;;;;;;;;;5032004;28;20046;-63
2023/09/20 13:55:40;;;;;;;10.93;6.82;;;;;;;;;;5032153;28;20057;-63
2023/09/20 13:58:07;;;;;;;12.23;5.60;;;;;;;;;;5031071;28;20053;-63
2023/09/20 14:00:36;;;;;;;12.23;5.72;;;;;;;;;;5032805;28;20494;-62
2023/09/20 14:03:05;;;;;;;10.13;5.70;;;;;;;;;;5035921;28;20037;-62
2023/09/20 14:05:33;;;;;;;11.93;5.60;;;;;;;;;;5035729;28;20042;-62
2023/09/20 14:08:00;;;;;;;10.55;6.18;;;;;;;;;;5034871;28;20041;-63
2023/09/20 14:10:31;;;;;;;11.98;5.60;;;;;;;;;;5035030;28;20041;-63
2023/09/20 14:13:00;;;;;;;14.77;6.13;;;;;;;;;;5035478;28;20064;-63
2023/09/20 14:15:29;;;;;;;12.65;6.10;;;;;;;;;;5035442;28;20061;-63
2023/09/20 14:18:00;;;;;;;10.43;5.60;;;;;;;;;;5035276;28;20041;-63
2023/09/20 14:20:28;;;;;;;12.45;5.53;;;;;;;;;;5035470;28;20483;-63
2023/09/20 14:22:56;;;;;;;15.73;5.28;;;;;;;;;;5034078;28;20041;-63
2023/09/20 14:25:24;;;;;;;14.75;6.03;;;;;;;;;;5035533;28;20037;-63
2023/09/20 14:27:52;;;;;;;15.80;6.82;;;;;;;;;;5035238;28;20049;-63
2023/09/20 14:30:20;;;;;;;14.25;6.13;;;;;;;;;;5035396;28;20112;-63
2023/09/20 14:32:48;;;;;;;14.63;5.32;;;;;;;;;;5035082;28;20045;-63
2023/09/20 14:35:16;;;;;;;10.80;5.40;;;;;;;;;;5034092;28;20064;-63
2023/09/20 14:37:45;;;;;;;11.98;5.50;;;;;;;;;;5035152;28;20129;-63
2023/09/20 14:40:17;;;;;;;11.40;5.10;;;;;;;;;;5035163;28;20525;-63
2023/09/20 14:42:54;;;;;;;12.90;5.25;;;;;;;;;;5035060;28;20045;-63
2023/09/20 14:45:26;;;;;;;10.25;5.28;;;;;;;;;;5035071;28;20049;-63
2023/09/20 14:47:55;;;;;;;12.80;5.30;;;;;;;;;;5035034;28;20046;-63
2023/09/20 14:50:23;;;;;;;10.93;5.45;;;;;;;;;;5035054;28;20495;-63
2023/09/20 14:52:51;;;;;;;15.27;5.30;;;;;;;;;;5034984;28;20047;-63
2023/09/20 14:55:20;;;;;;;9.88;5.47;;;;;;;;;;5034953;28;20095;-63
2023/09/20 14:57:49;;;;;;;16.30;6.82;;;;;;;;;;5035035;28;20479;-63
2023/09/20 15:00:17;;;;;;;16.48;9.77;;;;;;;;;;5034828;28;20484;-63
2023/09/20 15:02:46;;;;;;;13.35;6.45;;;;;;;;;;5034728;28;20122;-63
2023/09/20 15:05:14;;;;;;;13.95;7.22;;;;;;;;;;5034739;28;20079;-63
2023/09/20 15:07:47;;;;;;;10.95;6.10;;;;;;;;;;5034729;28;20060;-63
2023/09/20 15:10:16;;;;;;;15.00;7.13;;;;;;;;;;5034729;28;20048;-63
2023/09/20 15:12:58;;;;;;;16.25;8.05;;;;;;;;;;5033781;28;20037;-63
2023/09/20 15:15:32;;;;;;;15.57;11.00;;;;;;;;;;5034580;28;20041;-63
2023/09/20 15:18:00;;;;;;;11.30;6.15;;;;;;;;;;5034653;28;20065;-63